Аэропорт: Псков. Псков

ICAO: ULOO

METAR:
2019-07-23 18:00:00
ULOO 231800Z AUTO 34002MPS 9000 // NCD 21/12 Q1013 RMK QFE756
METAR:
2019-07-23 16:55:00
TAF ULOO 231655Z 2318/2403 34003G08MPS 9999 SCT030 TEMPO 2320/2403 3100 MIFG BR BKN011 BKN020CB